LRBS/BBU METAR and TAF weather

Enter ICAO airport designator
Station Type Date Time Source
LRBS METAR 2019/02/22 23:00 UTC NOAA

LRBS 222300Z 04017KT 340V080 9999 FEW046 M03/M13 Q1027 R07/29//95 NOSIG


Station Type Date Time Source
LRBS Decoded METAR 2019/02/22 23:00 UTC NOAA

Bucuresti / Imh, Romania (LRBS) 44-30N 026-08E 91M
Feb 22, 2019 - 06:00 PM EST / 2019.02.22 2300 UTC
Wind: from the NE (040 degrees) at 20 MPH (17 KT) (direction variable):0
Visibility: greater than 7 mile(s):0
Sky conditions: mostly clear
Temperature: 26 F (-3 C)
Windchill: 12 F (-11 C):1
Dew Point: 8 F (-13 C)
Relative Humidity: 45%
Pressure (altimeter): 30.33 in. Hg (1027 hPa)
ob: LRBS 222300Z 04017KT 340V080 9999 FEW046 M03/M13 Q1027 R07/29//95 NOSIG
cycle: 23

Station Type Date Time Source
LRBS TAF 2019/02/22 18:33 UTC NOAA

TAF TAF LRBS 221700Z 2218/2318 06025KT 9999 BKN040
TEMPO 2218/2224 07030G40KT PROB40
TEMPO 2218/2222 5000 -SN BKN015 OVC035
BECMG 2301/2303 05015KT


Example: see airport list